createdAt,value
2023-03-16T00:01:37.655Z,7.97
2023-03-16T00:06:41.127Z,8.35
2023-03-16T00:11:44.672Z,8.88
2023-03-16T00:16:49.824Z,8.90
2023-03-16T00:21:53.658Z,8.95
2023-03-16T00:26:57.310Z,9.27
2023-03-16T00:32:03.572Z,10.57
2023-03-16T00:37:07.238Z,11.60
2023-03-16T00:42:11.427Z,10.80
2023-03-16T00:47:16.623Z,11.73
2023-03-16T00:52:20.512Z,11.80
2023-03-16T00:57:27.938Z,11.30
2023-03-16T01:02:32.844Z,11.98
2023-03-16T01:12:40.108Z,12.38
2023-03-16T01:17:45.051Z,13.85
2023-03-16T01:27:53.946Z,12.93
2023-03-16T01:32:58.970Z,13.68
2023-03-16T01:38:02.472Z,14.25
2023-03-16T01:43:07.054Z,15.55
2023-03-16T01:48:11.952Z,14.73
2023-03-16T01:53:15.405Z,14.93
2023-03-16T01:58:19.498Z,14.57
2023-03-16T02:03:24.581Z,14.70
2023-03-16T02:08:29.299Z,14.55
2023-03-16T02:13:36.929Z,14.27
2023-03-16T02:18:42.045Z,13.50
2023-03-16T02:23:45.739Z,13.98
2023-03-16T02:29:02.681Z,13.38
2023-03-16T02:34:08.500Z,14.45
2023-03-16T02:39:12.194Z,14.50
2023-03-16T02:44:19.125Z,15.20
2023-03-16T02:49:27.556Z,15.55
2023-03-16T02:54:31.297Z,16.75
2023-03-16T02:59:34.835Z,16.83
2023-03-16T03:04:39.592Z,17.48
2023-03-16T03:09:43.472Z,17.77
2023-03-16T03:14:46.948Z,16.42
2023-03-16T03:19:52.146Z,17.92
2023-03-16T03:29:58.778Z,19.70
2023-03-16T03:35:03.587Z,20.02
2023-03-16T03:40:08.226Z,19.60
2023-03-16T03:45:13.136Z,18.85
2023-03-16T03:55:22.597Z,18.90
2023-03-16T04:05:29.600Z,19.90
2023-03-16T04:10:34.657Z,20.45
2023-03-16T04:20:42.185Z,19.90
2023-03-16T04:25:47.517Z,19.88
2023-03-16T04:30:51.194Z,19.10
2023-03-16T04:35:54.613Z,20.10
2023-03-16T04:40:59.388Z,19.50
2023-03-16T04:46:03.915Z,20.08
2023-03-16T04:51:07.763Z,20.85
2023-03-16T04:56:18.278Z,21.30
2023-03-16T05:01:22.188Z,19.75
2023-03-16T05:06:25.636Z,19.92
2023-03-16T05:11:30.640Z,19.55
2023-03-16T05:21:38.897Z,19.10
2023-03-16T05:26:43.845Z,18.38
2023-03-16T05:31:48.103Z,18.88
2023-03-16T05:36:52.002Z,20.52
2023-03-16T05:41:56.905Z,20.10
2023-03-16T05:47:00.427Z,19.40
2023-03-16T05:52:04.388Z,19.15
2023-03-16T05:57:09.457Z,18.85
2023-03-16T06:02:13.181Z,18.52
2023-03-16T06:07:16.723Z,18.95
2023-03-16T06:12:21.636Z,18.02
2023-03-16T06:22:28.475Z,18.58
2023-03-16T06:27:33.291Z,17.52
2023-03-16T06:32:38.253Z,18.80
2023-03-16T06:37:42.014Z,19.45
2023-03-16T06:42:47.494Z,19.15
2023-03-16T06:47:51.261Z,20.38
2023-03-16T06:52:54.920Z,20.73
2023-03-16T06:57:59.800Z,19.92
2023-03-16T07:08:07.090Z,21.48
2023-03-16T07:13:12.076Z,24.10
2023-03-16T07:23:20.184Z,22.27
2023-03-16T07:28:25.180Z,22.50
2023-03-16T07:33:28.794Z,22.30
2023-03-16T07:38:32.734Z,22.60
2023-03-16T07:43:37.876Z,22.60
2023-03-16T07:53:44.613Z,21.05
2023-03-16T07:58:49.517Z,22.52
2023-03-16T08:03:53.828Z,22.13
2023-03-16T08:08:57.373Z,20.85
2023-03-16T08:14:02.184Z,21.80
2023-03-16T08:19:05.733Z,21.83
2023-03-16T08:24:19.548Z,21.23
2023-03-16T08:29:27.790Z,21.38
2023-03-16T08:34:32.235Z,21.67
2023-03-16T08:39:35.971Z,22.23
2023-03-16T08:44:41.566Z,22.30
2023-03-16T08:49:45.521Z,23.50
2023-03-16T08:55:02.023Z,24.10
2023-03-16T09:00:13.384Z,21.58
2023-03-16T09:05:20.024Z,22.70
2023-03-16T09:10:24.446Z,22.58
2023-03-16T09:15:29.368Z,17.70
2023-03-16T09:25:37.033Z,19.15
2023-03-16T09:30:42.452Z,18.00
2023-03-16T09:35:46.525Z,19.90
2023-03-16T09:40:57.649Z,20.37
2023-03-16T09:46:09.695Z,21.83
2023-03-16T09:51:21.879Z,19.23
2023-03-16T09:56:32.390Z,19.40
2023-03-16T10:01:48.679Z,19.65
2023-03-16T10:07:04.004Z,20.17
2023-03-16T10:12:10.093Z,21.42
2023-03-16T10:17:18.578Z,18.95
2023-03-16T10:22:26.842Z,18.88
2023-03-16T10:27:33.024Z,19.45
2023-03-16T10:32:38.761Z,19.25
2023-03-16T10:37:42.794Z,18.20
2023-03-16T10:42:47.092Z,20.63
2023-03-16T10:47:52.112Z,16.98
2023-03-16T10:52:58.251Z,17.20
2023-03-16T10:58:03.681Z,17.52
2023-03-16T11:03:24.671Z,18.90
2023-03-16T11:08:32.708Z,17.83
2023-03-16T11:13:38.938Z,17.08
2023-03-16T11:18:47.843Z,16.70
2023-03-16T11:23:56.327Z,15.98
2023-03-16T11:29:09.560Z,18.83
2023-03-16T11:34:26.018Z,20.13
2023-03-16T11:39:34.932Z,18.33
2023-03-16T11:44:47.496Z,18.13
2023-03-16T11:50:00.084Z,18.13
2023-03-16T11:55:19.768Z,21.13
2023-03-16T12:00:33.334Z,19.27
2023-03-16T12:05:55.498Z,19.90
2023-03-16T12:11:04.919Z,20.00
2023-03-16T12:16:14.413Z,20.80
2023-03-16T12:21:23.330Z,19.20
2023-03-16T12:26:33.211Z,21.20
2023-03-16T12:31:43.258Z,21.63
2023-03-16T12:37:13.739Z,21.00
2023-03-16T12:42:37.690Z,21.58
2023-03-16T12:47:54.676Z,21.77
2023-03-16T12:53:00.263Z,23.40
2023-03-16T12:58:07.935Z,23.70
2023-03-16T13:03:16.787Z,22.67
2023-03-16T13:08:23.175Z,24.77
2023-03-16T13:13:27.420Z,22.73
2023-03-16T13:18:37.283Z,24.40
2023-03-16T13:24:16.447Z,21.00
2023-03-16T13:29:24.460Z,14.88
2023-03-16T13:34:31.060Z,15.18
2023-03-16T13:39:36.124Z,14.75
2023-03-16T13:44:41.624Z,12.82
2023-03-16T13:49:49.097Z,13.25
2023-03-16T13:54:55.240Z,12.45
2023-03-16T14:00:08.521Z,13.55
2023-03-16T14:05:13.542Z,14.55
2023-03-16T14:10:19.365Z,11.63
2023-03-16T14:15:24.043Z,11.85
2023-03-16T14:20:27.612Z,12.07
2023-03-16T14:25:32.611Z,12.38
2023-03-16T14:30:36.078Z,12.02
2023-03-16T14:35:43.236Z,13.35
2023-03-16T14:40:55.184Z,13.55
2023-03-16T14:45:59.200Z,12.45
2023-03-16T14:51:04.587Z,12.52
2023-03-16T14:56:14.611Z,14.00
2023-03-16T15:01:19.604Z,12.95
2023-03-16T15:06:23.256Z,11.85
2023-03-16T15:11:31.896Z,12.75
2023-03-16T15:16:35.716Z,12.40
2023-03-16T15:21:39.356Z,12.15
2023-03-16T15:26:44.305Z,10.43
2023-03-16T15:36:52.078Z,10.75
2023-03-16T15:41:57.067Z,10.00
2023-03-16T15:52:05.033Z,9.95
2023-03-16T15:57:12.985Z,9.30
2023-03-16T16:02:28.924Z,9.25
2023-03-16T16:07:32.680Z,9.52
2023-03-16T16:12:37.553Z,9.02
2023-03-16T16:23:03.122Z,8.85
2023-03-16T16:28:15.278Z,8.48
2023-03-16T16:33:26.996Z,8.68
2023-03-16T16:38:30.696Z,8.13
2023-03-16T16:43:39.997Z,7.78
2023-03-16T16:48:47.156Z,7.88
2023-03-16T16:53:51.888Z,8.50
2023-03-16T16:58:57.971Z,8.23
2023-03-16T17:04:02.233Z,7.45
2023-03-16T17:09:06.979Z,6.00
2023-03-16T17:14:18.291Z,5.18
2023-03-16T17:19:24.271Z,4.57
2023-03-16T17:24:28.942Z,4.22
2023-03-16T17:29:36.753Z,3.75
2023-03-16T17:34:40.108Z,4.00
2023-03-16T17:39:43.764Z,3.85
2023-03-16T17:44:50.625Z,3.47
2023-03-16T17:49:54.698Z,3.90
2023-03-16T17:54:58.465Z,3.97
2023-03-16T18:00:06.634Z,3.58
2023-03-16T18:05:19.139Z,3.13
2023-03-16T18:10:25.654Z,3.83
2023-03-16T18:15:33.995Z,3.08
2023-03-16T18:20:37.889Z,3.22
2023-03-16T18:25:42.264Z,3.60
2023-03-16T18:30:49.306Z,3.35
2023-03-16T18:35:54.341Z,3.10
2023-03-16T18:40:58.432Z,2.53
2023-03-16T18:46:03.273Z,3.03
2023-03-16T18:51:07.024Z,3.00
2023-03-16T18:56:18.511Z,3.13
2023-03-16T19:01:29.193Z,3.03
2023-03-16T19:06:35.132Z,2.85
2023-03-16T19:11:43.939Z,2.75
2023-03-16T19:16:48.939Z,2.30
2023-03-16T19:21:54.840Z,3.00
2023-03-16T19:26:59.010Z,2.65
2023-03-16T19:32:03.902Z,2.40
2023-03-16T19:42:21.617Z,2.40
2023-03-16T19:47:30.985Z,2.60
2023-03-16T19:52:34.609Z,2.35
2023-03-16T19:57:38.422Z,2.42
2023-03-16T20:02:43.361Z,2.80
2023-03-16T20:12:55.644Z,2.83
2023-03-16T20:18:01.324Z,2.33
2023-03-16T20:23:15.389Z,2.10
2023-03-16T20:28:21.586Z,1.90
2023-03-16T20:33:28.926Z,2.20
2023-03-16T20:38:33.248Z,2.10
2023-03-16T20:43:37.735Z,1.52
2023-03-16T20:48:42.655Z,1.40
2023-03-16T20:53:47.515Z,1.40
2023-03-16T20:58:55.208Z,1.40
2023-03-16T21:04:00.287Z,1.42
2023-03-16T21:09:04.180Z,1.50
2023-03-16T21:14:09.410Z,1.43
2023-03-16T21:19:19.889Z,1.20
2023-03-16T21:24:23.395Z,1.17
2023-03-16T21:29:27.442Z,1.08
2023-03-16T21:34:37.085Z,1.30
2023-03-16T21:39:40.638Z,1.13
2023-03-16T21:44:44.062Z,1.13
2023-03-16T21:49:48.893Z,1.30
2023-03-16T21:54:52.893Z,1.20
2023-03-16T21:59:56.738Z,1.30
2023-03-16T22:05:01.744Z,1.17
2023-03-16T22:10:15.454Z,1.10
2023-03-16T22:15:20.360Z,0.93
2023-03-16T22:20:27.642Z,1.00
2023-03-16T22:25:31.405Z,1.10
2023-03-16T22:30:34.988Z,1.17
2023-03-16T22:35:40.637Z,1.08
2023-03-16T22:40:44.432Z,1.33
2023-03-16T22:45:48.874Z,1.10
2023-03-16T22:50:54.750Z,1.10
2023-03-16T22:55:58.668Z,1.20
2023-03-16T23:01:10.395Z,1.60
2023-03-16T23:06:20.706Z,1.17
2023-03-16T23:11:28.463Z,1.50
2023-03-16T23:23:26.793Z,1.20
2023-03-16T23:28:31.572Z,1.30
2023-03-16T23:33:35.243Z,1.50
2023-03-16T23:38:38.750Z,1.30
2023-03-16T23:43:46.262Z,1.48
2023-03-16T23:48:51.292Z,1.33
2023-03-16T23:53:55.147Z,1.20
2023-03-16T23:59:00.104Z,1.55
